Cordell Hull Observed Data For Previous 48 Hours

Caption
Day and Hour Reservoir Elevation (behind dam)* Tailwater Elevation (below dam)* Average Hourly Discharge*
6/20/2018 1 AM CDT 503.75 445.35 0
6/20/2018 2 AM CDT 503.80 444.90 0
6/20/2018 3 AM CDT 503.83 444.43 0
6/20/2018 4 AM CDT 503.86 444.36 0
6/20/2018 5 AM CDT 503.78 445.68 7,390
6/20/2018 6 AM CDT 503.77 446.17 7,440
6/20/2018 7 AM CDT 503.83 446.33 7,450
6/20/2018 8 AM CDT 503.98 445.08 0
6/20/2018 9 AM CDT 504.00 444.20 0
6/20/2018 10 AM CDT 504.00 444.40 0
6/20/2018 11 AM CDT 504.06 444.26 0
6/20/2018 12 PM CDT 504.01 445.71 7,370
6/20/2018 1 PM CDT 503.83 448.23 15,420
6/20/2018 2 PM CDT 503.62 451.42 24,660
6/20/2018 3 PM CDT 503.59 452.19 25,110
6/20/2018 4 PM CDT 503.57 452.67 25,410
6/20/2018 5 PM CDT 503.45 453.05 25,710
6/20/2018 6 PM CDT 503.38 453.38 25,950
6/20/2018 7 PM CDT 503.53 451.53 16,250
6/20/2018 8 PM CDT 503.45 451.25 16,180
6/20/2018 9 PM CDT 503.49 448.99 8,600
6/20/2018 10 PM CDT 503.58 447.88 0
6/20/2018 11 PM CDT 503.67 446.67 0
6/21/2018 12 AM CDT 503.76 445.46 0
6/21/2018 1 AM CDT 503.82 445.12 0
6/21/2018 2 AM CDT 503.89 444.89 0
6/21/2018 3 AM CDT 503.96 444.56 0
6/21/2018 4 AM CDT 504.03 444.23 0
6/21/2018 5 AM CDT 503.99 445.29 7,495
6/21/2018 6 AM CDT 503.95 446.25 7,630
6/21/2018 7 AM CDT 504.02 446.42 7,440
6/21/2018 8 AM CDT 504.10 444.90 0
6/21/2018 9 AM CDT 504.15 444.75 0
6/21/2018 10 AM CDT 504.16 444.46 0
6/21/2018 11 AM CDT 504.21 444.31 0
6/21/2018 12 PM CDT 504.05 445.75 7,370
6/21/2018 1 PM CDT 503.87 448.27 15,420
6/21/2018 2 PM CDT 503.64 451.34 24,615
6/21/2018 3 PM CDT 503.69 452.19 25,050
6/21/2018 4 PM CDT 503.61 452.61 25,350
6/21/2018 5 PM CDT 503.47 453.17 25,770
6/21/2018 6 PM CDT 503.41 453.21 25,830
6/21/2018 7 PM CDT 503.55 451.55 16,500
6/21/2018 8 PM CDT 503.44 451.34 16,215
6/21/2018 9 PM CDT 503.53 449.03 8,350
6/21/2018 10 PM CDT 503.59 447.79 0
6/21/2018 11 PM CDT 503.65 445.65 0
6/22/2018 12 AM CDT 503.71 445.41 0

Elevations are in feet above sea level. Discharges are in cubic feet per second and are reported at the end of the hour.